Loves Park, IL (61111)

11:08 PM CDT on August 24, 2016 (GMT -0500)
Killdeer Place | | Change Station

Elev 849 ft 42.31 °N, 89.01 °W | Updated 6 minutes ago

Light Rain
Light Rain
77.5 °F
Feels Like 79 °F
N
0.6
Wind Variable Wind from South
Gusts 2.5 mph

Today
High -- | Low -- °F
--% Chance of Precip.
Yesterday
High -- | Low -- °F
Precip. -- in
Pressure 29.96 in
Visibility 10.0 miles
Clouds Few 4100 ft
Scattered Clouds 9000 ft
Mostly Cloudy 11000 ft
Overcast 15000 ft
Heat Index 79 °F
Dew Point 75 °F
Humidity 91%
Rainfall 0.27 in
Snow Depth Not available.
6:13 AM 7:42 PM
Waning Gibbous, 50% visible
METAR KRFD 250354Z 20005KT 10SM -RA FEW041 SCT090 BKN110 OVC150 24/21 A2998 RMK AO2 RAB46 SLP146 FRQ LTGICCC DSNT S-SW CB DSNT S-SW P0000 T02390211
Pressure 29.96 in
Visibility 10.0 miles
Clouds Few 4100 ft
Scattered Clouds 9000 ft
Mostly Cloudy 11000 ft
Overcast 15000 ft
Heat Index 79 °F
Dew Point 75 °F
Humidity 91%
Rainfall 0.27 in
Snow Depth Not available.
6:13 AM 7:42 PM
Waning Gibbous, 50% visible
METAR KRFD 250354Z 20005KT 10SM -RA FEW041 SCT090 BKN110 OVC150 24/21 A2998 RMK AO2 RAB46 SLP146 FRQ LTGICCC DSNT S-SW CB DSNT S-SW P0000 T02390211

10-Day Weather Forecast

Almanac

Astronomy

Aug. 24, 2016 Rise Set
Actual Time
Civil Twilight
Nautical Twilight
Astronomical Twilight
Moon
Length of Visible Light
Length of Day
Tomorrow will be .
, % of the Moon is Illuminated

Today's Extremes

State Highs State Lows

Community

WunderPhotos

Upload Photos

1,934,796 photos uploaded!

WunderBlog® & News

Nearby

Air Quality

  Air Quality AQ Index Pollutant
Not available.

Snow Depth

Station Depth Elevation

Earthquake Activity

City Distance Mag. Time & Date
Minimum magnitude displayed is 2.5.

Coastal Water Temperatures

Place Temperature

Stations

Nearby Weather Stations

Station Location Temp. Windchill Dew Point Humidity Wind Precip. Elev Updated Type
                   

Watches & Warnings

There are currently no watches in effect.